sensor_id;sensor_type;location;lat;lon;timestamp;P1;durP1;ratioP1;P2;durP2;ratioP2
41964;SDS011;50120;53.250;8.702;2022-08-21T00:00:12;3.85;;;1.83;;
41964;SDS011;50120;53.250;8.702;2022-08-21T00:02:51;4.93;;;2.28;;
41964;SDS011;50120;53.250;8.702;2022-08-21T00:05:22;5.90;;;2.10;;
41964;SDS011;50120;53.250;8.702;2022-08-21T00:07:49;3.45;;;2.10;;
41964;SDS011;50120;53.250;8.702;2022-08-21T00:10:15;5.10;;;2.20;;
41964;SDS011;50120;53.250;8.702;2022-08-21T00:12:42;4.47;;;1.85;;
41964;SDS011;50120;53.250;8.702;2022-08-21T00:15:09;3.75;;;1.98;;
41964;SDS011;50120;53.250;8.702;2022-08-21T00:17:38;7.00;;;2.10;;
41964;SDS011;50120;53.250;8.702;2022-08-21T00:20:05;5.10;;;1.92;;
41964;SDS011;50120;53.250;8.702;2022-08-21T00:22:33;3.08;;;1.90;;
41964;SDS011;50120;53.250;8.702;2022-08-21T00:24:59;3.92;;;2.08;;
41964;SDS011;50120;53.250;8.702;2022-08-21T00:27:25;3.88;;;2.03;;
41964;SDS011;50120;53.250;8.702;2022-08-21T00:29:51;3.88;;;2.00;;
41964;SDS011;50120;53.250;8.702;2022-08-21T00:32:19;4.75;;;1.85;;
41964;SDS011;50120;53.250;8.702;2022-08-21T00:34:46;3.45;;;1.83;;
41964;SDS011;50120;53.250;8.702;2022-08-21T00:37:12;3.92;;;2.15;;
41964;SDS011;50120;53.250;8.702;2022-08-21T00:39:38;4.20;;;2.05;;
41964;SDS011;50120;53.250;8.702;2022-08-21T00:42:04;4.13;;;1.80;;
41964;SDS011;50120;53.250;8.702;2022-08-21T00:44:29;7.50;;;2.30;;
41964;SDS011;50120;53.250;8.702;2022-08-21T00:46:56;5.90;;;2.22;;
41964;SDS011;50120;53.250;8.702;2022-08-21T00:49:22;6.78;;;2.17;;
41964;SDS011;50120;53.250;8.702;2022-08-21T00:51:51;7.20;;;2.33;;
41964;SDS011;50120;53.250;8.702;2022-08-21T00:54:24;3.63;;;1.90;;
41964;SDS011;50120;53.250;8.702;2022-08-21T00:56:54;5.07;;;1.92;;
41964;SDS011;50120;53.250;8.702;2022-08-21T00:59:23;4.15;;;1.83;;
41964;SDS011;50120;53.250;8.702;2022-08-21T01:01:51;4.43;;;1.95;;
41964;SDS011;50120;53.250;8.702;2022-08-21T01:04:18;6.55;;;1.98;;
41964;SDS011;50120;53.250;8.702;2022-08-21T01:06:44;4.60;;;1.73;;
41964;SDS011;50120;53.250;8.702;2022-08-21T01:09:11;3.58;;;1.67;;
41964;SDS011;50120;53.250;8.702;2022-08-21T01:11:37;4.13;;;1.77;;
41964;SDS011;50120;53.250;8.702;2022-08-21T01:14:03;4.07;;;1.90;;
41964;SDS011;50120;53.250;8.702;2022-08-21T01:16:29;4.72;;;2.00;;
41964;SDS011;50120;53.250;8.702;2022-08-21T01:18:56;8.13;;;2.00;;
41964;SDS011;50120;53.250;8.702;2022-08-21T01:21:22;4.40;;;1.88;;
41964;SDS011;50120;53.250;8.702;2022-08-21T01:23:52;5.60;;;1.90;;
41964;SDS011;50120;53.250;8.702;2022-08-21T01:26:23;6.13;;;2.13;;
41964;SDS011;50120;53.250;8.702;2022-08-21T01:28:54;5.47;;;2.20;;
41964;SDS011;50120;53.250;8.702;2022-08-21T01:31:28;4.50;;;1.80;;
41964;SDS011;50120;53.250;8.702;2022-08-21T01:33:56;6.25;;;1.77;;
41964;SDS011;50120;53.250;8.702;2022-08-21T01:36:22;6.13;;;2.40;;
41964;SDS011;50120;53.250;8.702;2022-08-21T01:38:48;3.65;;;2.00;;
41964;SDS011;50120;53.250;8.702;2022-08-21T01:41:14;3.42;;;2.05;;
41964;SDS011;50120;53.250;8.702;2022-08-21T01:43:41;4.75;;;1.90;;
41964;SDS011;50120;53.250;8.702;2022-08-21T01:46:08;4.95;;;1.85;;
41964;SDS011;50120;53.250;8.702;2022-08-21T01:48:34;3.92;;;1.60;;
41964;SDS011;50120;53.250;8.702;2022-08-21T01:51:00;5.47;;;1.77;;
41964;SDS011;50120;53.250;8.702;2022-08-21T01:53:26;3.72;;;1.92;;
41964;SDS011;50120;53.250;8.702;2022-08-21T01:55:52;6.95;;;2.22;;
41964;SDS011;50120;53.250;8.702;2022-08-21T01:58:18;3.40;;;1.90;;
41964;SDS011;50120;53.250;8.702;2022-08-21T02:00:44;5.55;;;1.85;;
41964;SDS011;50120;53.250;8.702;2022-08-21T02:03:09;4.32;;;1.90;;
41964;SDS011;50120;53.250;8.702;2022-08-21T02:05:35;5.03;;;2.15;;
41964;SDS011;50120;53.250;8.702;2022-08-21T02:08:01;4.00;;;1.80;;
41964;SDS011;50120;53.250;8.702;2022-08-21T02:10:28;3.72;;;1.88;;
41964;SDS011;50120;53.250;8.702;2022-08-21T02:12:57;3.80;;;1.95;;
41964;SDS011;50120;53.250;8.702;2022-08-21T02:15:25;3.30;;;1.83;;
41964;SDS011;50120;53.250;8.702;2022-08-21T02:17:52;5.53;;;2.10;;
41964;SDS011;50120;53.250;8.702;2022-08-21T02:20:25;8.40;;;2.30;;
41964;SDS011;50120;53.250;8.702;2022-08-21T02:23:02;5.78;;;2.30;;
41964;SDS011;50120;53.250;8.702;2022-08-21T02:25:30;5.30;;;1.88;;
41964;SDS011;50120;53.250;8.702;2022-08-21T02:27:57;4.68;;;2.00;;
41964;SDS011;50120;53.250;8.702;2022-08-21T02:30:29;5.43;;;2.20;;
41964;SDS011;50120;53.250;8.702;2022-08-21T02:32:58;3.92;;;1.98;;
41964;SDS011;50120;53.250;8.702;2022-08-21T02:35:24;5.68;;;2.38;;
41964;SDS011;50120;53.250;8.702;2022-08-21T02:37:52;6.72;;;1.98;;
41964;SDS011;50120;53.250;8.702;2022-08-21T02:40:20;4.65;;;2.00;;
41964;SDS011;50120;53.250;8.702;2022-08-21T02:42:48;6.07;;;2.10;;
41964;SDS011;50120;53.250;8.702;2022-08-21T02:45:14;6.38;;;1.80;;
41964;SDS011;50120;53.250;8.702;2022-08-21T02:47:52;3.00;;;1.83;;
41964;SDS011;50120;53.250;8.702;2022-08-21T02:50:20;7.45;;;2.38;;
41964;SDS011;50120;53.250;8.702;2022-08-21T02:52:48;3.47;;;1.80;;
41964;SDS011;50120;53.250;8.702;2022-08-21T02:55:16;4.65;;;2.00;;
41964;SDS011;50120;53.250;8.702;2022-08-21T02:57:41;4.78;;;2.20;;
41964;SDS011;50120;53.250;8.702;2022-08-21T03:00:08;6.05;;;2.00;;
41964;SDS011;50120;53.250;8.702;2022-08-21T03:02:36;5.00;;;2.20;;
41964;SDS011;50120;53.250;8.702;2022-08-21T03:05:02;4.80;;;2.33;;
41964;SDS011;50120;53.250;8.702;2022-08-21T03:07:29;5.57;;;1.98;;
41964;SDS011;50120;53.250;8.702;2022-08-21T03:09:55;6.78;;;2.38;;
41964;SDS011;50120;53.250;8.702;2022-08-21T03:12:21;7.22;;;2.20;;
41964;SDS011;50120;53.250;8.702;2022-08-21T03:14:47;6.10;;;2.08;;
41964;SDS011;50120;53.250;8.702;2022-08-21T03:17:13;6.55;;;2.22;;
41964;SDS011;50120;53.250;8.702;2022-08-21T03:19:38;5.38;;;2.10;;
41964;SDS011;50120;53.250;8.702;2022-08-21T03:22:04;7.38;;;2.40;;
41964;SDS011;50120;53.250;8.702;2022-08-21T03:24:30;4.95;;;2.10;;
41964;SDS011;50120;53.250;8.702;2022-08-21T03:26:56;3.97;;;2.00;;
41964;SDS011;50120;53.250;8.702;2022-08-21T03:29:22;4.63;;;2.53;;
41964;SDS011;50120;53.250;8.702;2022-08-21T03:31:48;4.70;;;1.95;;
41964;SDS011;50120;53.250;8.702;2022-08-21T03:34:14;6.30;;;2.00;;
41964;SDS011;50120;53.250;8.702;2022-08-21T03:36:40;3.10;;;1.88;;
41964;SDS011;50120;53.250;8.702;2022-08-21T03:39:05;5.80;;;1.92;;
41964;SDS011;50120;53.250;8.702;2022-08-21T03:41:31;4.95;;;1.85;;
41964;SDS011;50120;53.250;8.702;2022-08-21T03:43:57;5.10;;;2.30;;
41964;SDS011;50120;53.250;8.702;2022-08-21T03:46:24;4.88;;;2.20;;
41964;SDS011;50120;53.250;8.702;2022-08-21T03:48:50;6.20;;;2.40;;
41964;SDS011;50120;53.250;8.702;2022-08-21T03:51:17;3.80;;;2.20;;
41964;SDS011;50120;53.250;8.702;2022-08-21T03:53:43;4.97;;;2.33;;
41964;SDS011;50120;53.250;8.702;2022-08-21T03:56:10;4.57;;;2.15;;
41964;SDS011;50120;53.250;8.702;2022-08-21T03:58:36;8.93;;;2.30;;
41964;SDS011;50120;53.250;8.702;2022-08-21T04:01:04;6.60;;;2.10;;
41964;SDS011;50120;53.250;8.702;2022-08-21T04:03:31;5.10;;;1.90;;
41964;SDS011;50120;53.250;8.702;2022-08-21T04:05:59;11.07;;;2.40;;
41964;SDS011;50120;53.250;8.702;2022-08-21T04:08:25;5.22;;;2.20;;
41964;SDS011;50120;53.250;8.702;2022-08-21T04:10:52;4.32;;;2.13;;
41964;SDS011;50120;53.250;8.702;2022-08-21T04:13:20;5.80;;;2.30;;
41964;SDS011;50120;53.250;8.702;2022-08-21T04:15:46;4.72;;;2.22;;
41964;SDS011;50120;53.250;8.702;2022-08-21T04:18:13;5.75;;;1.98;;
41964;SDS011;50120;53.250;8.702;2022-08-21T04:20:39;4.82;;;2.10;;
41964;SDS011;50120;53.250;8.702;2022-08-21T04:23:07;4.53;;;2.10;;
41964;SDS011;50120;53.250;8.702;2022-08-21T04:25:33;3.88;;;2.20;;
41964;SDS011;50120;53.250;8.702;2022-08-21T04:27:59;7.32;;;2.45;;
41964;SDS011;50120;53.250;8.702;2022-08-21T04:30:24;5.80;;;2.40;;
41964;SDS011;50120;53.250;8.702;2022-08-21T04:32:50;4.47;;;2.25;;
41964;SDS011;50120;53.250;8.702;2022-08-21T04:35:18;6.05;;;2.30;;
41964;SDS011;50120;53.250;8.702;2022-08-21T04:37:45;8.18;;;2.80;;
41964;SDS011;50120;53.250;8.702;2022-08-21T04:40:12;5.97;;;2.55;;
41964;SDS011;50120;53.250;8.702;2022-08-21T04:42:43;5.60;;;2.38;;
41964;SDS011;50120;53.250;8.702;2022-08-21T04:45:30;5.78;;;2.38;;
41964;SDS011;50120;53.250;8.702;2022-08-21T04:47:59;6.93;;;2.53;;
41964;SDS011;50120;53.250;8.702;2022-08-21T04:50:50;6.90;;;2.60;;
41964;SDS011;50120;53.250;8.702;2022-08-21T04:53:30;4.57;;;2.25;;
41964;SDS011;50120;53.250;8.702;2022-08-21T04:56:09;6.63;;;2.28;;
41964;SDS011;50120;53.250;8.702;2022-08-21T04:58:57;4.68;;;2.33;;
41964;SDS011;50120;53.250;8.702;2022-08-21T05:01:29;6.78;;;2.30;;
41964;SDS011;50120;53.250;8.702;2022-08-21T05:03:58;4.10;;;2.35;;
41964;SDS011;50120;53.250;8.702;2022-08-21T05:06:25;4.28;;;2.50;;
41964;SDS011;50120;53.250;8.702;2022-08-21T05:08:53;8.25;;;2.75;;
41964;SDS011;50120;53.250;8.702;2022-08-21T05:11:21;6.53;;;2.65;;
41964;SDS011;50120;53.250;8.702;2022-08-21T05:13:48;5.80;;;2.80;;
41964;SDS011;50120;53.250;8.702;2022-08-21T05:16:14;5.90;;;2.58;;
41964;SDS011;50120;53.250;8.702;2022-08-21T05:18:41;6.40;;;2.88;;
41964;SDS011;50120;53.250;8.702;2022-08-21T05:21:07;5.53;;;2.70;;
41964;SDS011;50120;53.250;8.702;2022-08-21T05:23:34;4.90;;;2.40;;
41964;SDS011;50120;53.250;8.702;2022-08-21T05:26:01;3.50;;;2.55;;
41964;SDS011;50120;53.250;8.702;2022-08-21T05:28:29;7.35;;;3.17;;
41964;SDS011;50120;53.250;8.702;2022-08-21T05:30:55;6.35;;;2.80;;
41964;SDS011;50120;53.250;8.702;2022-08-21T05:33:21;7.93;;;3.10;;
41964;SDS011;50120;53.250;8.702;2022-08-21T05:35:49;8.40;;;3.20;;
41964;SDS011;50120;53.250;8.702;2022-08-21T05:38:17;7.13;;;3.10;;
41964;SDS011;50120;53.250;8.702;2022-08-21T05:40:43;9.57;;;3.40;;
41964;SDS011;50120;53.250;8.702;2022-08-21T05:43:09;5.55;;;2.70;;
41964;SDS011;50120;53.250;8.702;2022-08-21T05:45:34;7.97;;;3.25;;
41964;SDS011;50120;53.250;8.702;2022-08-21T05:48:07;7.07;;;3.17;;
41964;SDS011;50120;53.250;8.702;2022-08-21T05:50:34;6.50;;;3.60;;
41964;SDS011;50120;53.250;8.702;2022-08-21T05:53:03;15.35;;;5.05;;
41964;SDS011;50120;53.250;8.702;2022-08-21T05:55:30;8.85;;;4.07;;
41964;SDS011;50120;53.250;8.702;2022-08-21T05:57:56;10.40;;;4.30;;
41964;SDS011;50120;53.250;8.702;2022-08-21T06:00:21;8.35;;;3.70;;
41964;SDS011;50120;53.250;8.702;2022-08-21T06:02:48;8.25;;;4.38;;
41964;SDS011;50120;53.250;8.702;2022-08-21T06:05:15;12.38;;;6.65;;
41964;SDS011;50120;53.250;8.702;2022-08-21T06:07:42;12.48;;;4.95;;
41964;SDS011;50120;53.250;8.702;2022-08-21T06:10:09;8.55;;;4.00;;
41964;SDS011;50120;53.250;8.702;2022-08-21T06:12:35;7.35;;;4.57;;
41964;SDS011;50120;53.250;8.702;2022-08-21T06:15:01;7.40;;;4.40;;
41964;SDS011;50120;53.250;8.702;2022-08-21T06:17:28;9.95;;;4.38;;
41964;SDS011;50120;53.250;8.702;2022-08-21T06:19:54;10.45;;;4.45;;
41964;SDS011;50120;53.250;8.702;2022-08-21T06:22:20;13.65;;;4.90;;
41964;SDS011;50120;53.250;8.702;2022-08-21T06:24:46;8.88;;;4.30;;
41964;SDS011;50120;53.250;8.702;2022-08-21T06:27:12;8.18;;;4.32;;
41964;SDS011;50120;53.250;8.702;2022-08-21T06:29:38;7.97;;;4.78;;
41964;SDS011;50120;53.250;8.702;2022-08-21T06:32:04;10.38;;;5.30;;
41964;SDS011;50120;53.250;8.702;2022-08-21T06:34:35;14.25;;;5.00;;
41964;SDS011;50120;53.250;8.702;2022-08-21T06:37:03;16.00;;;7.50;;
41964;SDS011;50120;53.250;8.702;2022-08-21T06:39:29;7.88;;;5.10;;
41964;SDS011;50120;53.250;8.702;2022-08-21T06:41:55;10.20;;;4.78;;
41964;SDS011;50120;53.250;8.702;2022-08-21T06:44:21;10.82;;;4.95;;
41964;SDS011;50120;53.250;8.702;2022-08-21T06:46:47;8.65;;;4.95;;
41964;SDS011;50120;53.250;8.702;2022-08-21T06:49:13;13.15;;;4.80;;
41964;SDS011;50120;53.250;8.702;2022-08-21T06:51:39;7.72;;;4.50;;
41964;SDS011;50120;53.250;8.702;2022-08-21T06:54:05;11.95;;;4.30;;
41964;SDS011;50120;53.250;8.702;2022-08-21T06:56:31;9.45;;;4.03;;
41964;SDS011;50120;53.250;8.702;2022-08-21T06:58:58;10.80;;;3.50;;
41964;SDS011;50120;53.250;8.702;2022-08-21T07:01:25;8.50;;;3.90;;
41964;SDS011;50120;53.250;8.702;2022-08-21T07:03:51;6.47;;;3.90;;
41964;SDS011;50120;53.250;8.702;2022-08-21T07:06:17;11.70;;;3.85;;
41964;SDS011;50120;53.250;8.702;2022-08-21T07:08:43;8.82;;;3.35;;
41964;SDS011;50120;53.250;8.702;2022-08-21T07:11:13;8.20;;;3.45;;
41964;SDS011;50120;53.250;8.702;2022-08-21T07:13:43;8.30;;;3.30;;
41964;SDS011;50120;53.250;8.702;2022-08-21T07:16:10;8.90;;;3.10;;
41964;SDS011;50120;53.250;8.702;2022-08-21T07:18:35;10.18;;;3.20;;
41964;SDS011;50120;53.250;8.702;2022-08-21T07:21:02;9.38;;;2.90;;
41964;SDS011;50120;53.250;8.702;2022-08-21T07:23:30;8.98;;;2.80;;
41964;SDS011;50120;53.250;8.702;2022-08-21T07:25:58;6.38;;;2.67;;
41964;SDS011;50120;53.250;8.702;2022-08-21T07:28:25;9.32;;;2.90;;
41964;SDS011;50120;53.250;8.702;2022-08-21T07:30:53;7.78;;;2.88;;
41964;SDS011;50120;53.250;8.702;2022-08-21T07:33:21;6.45;;;2.78;;
41964;SDS011;50120;53.250;8.702;2022-08-21T07:35:48;13.85;;;5.80;;
41964;SDS011;50120;53.250;8.702;2022-08-21T07:38:14;11.15;;;3.53;;
41964;SDS011;50120;53.250;8.702;2022-08-21T07:40:40;6.07;;;2.60;;
41964;SDS011;50120;53.250;8.702;2022-08-21T07:43:06;11.02;;;3.00;;
41964;SDS011;50120;53.250;8.702;2022-08-21T07:45:32;13.40;;;3.03;;
41964;SDS011;50120;53.250;8.702;2022-08-21T07:47:58;7.00;;;2.50;;
41964;SDS011;50120;53.250;8.702;2022-08-21T07:50:24;8.63;;;2.40;;
41964;SDS011;50120;53.250;8.702;2022-08-21T07:52:50;4.40;;;1.92;;
41964;SDS011;50120;53.250;8.702;2022-08-21T07:55:18;8.75;;;2.50;;
41964;SDS011;50120;53.250;8.702;2022-08-21T07:57:45;9.10;;;2.30;;
41964;SDS011;50120;53.250;8.702;2022-08-21T08:00:12;8.10;;;2.35;;
41964;SDS011;50120;53.250;8.702;2022-08-21T08:02:45;8.80;;;2.60;;
41964;SDS011;50120;53.250;8.702;2022-08-21T08:05:17;7.53;;;2.20;;
41964;SDS011;50120;53.250;8.702;2022-08-21T08:07:45;15.70;;;2.65;;
41964;SDS011;50120;53.250;8.702;2022-08-21T08:10:11;9.77;;;2.72;;
41964;SDS011;50120;53.250;8.702;2022-08-21T08:12:38;12.60;;;3.30;;
41964;SDS011;50120;53.250;8.702;2022-08-21T08:15:07;9.38;;;2.90;;
41964;SDS011;50120;53.250;8.702;2022-08-21T08:17:39;6.82;;;2.72;;
41964;SDS011;50120;53.250;8.702;2022-08-21T08:20:06;10.43;;;2.95;;
41964;SDS011;50120;53.250;8.702;2022-08-21T08:22:33;7.97;;;2.03;;
41964;SDS011;50120;53.250;8.702;2022-08-21T08:25:00;12.93;;;2.28;;
41964;SDS011;50120;53.250;8.702;2022-08-21T08:27:26;6.13;;;2.30;;
41964;SDS011;50120;53.250;8.702;2022-08-21T08:29:52;6.97;;;2.08;;
41964;SDS011;50120;53.250;8.702;2022-08-21T08:32:19;5.47;;;1.85;;
41964;SDS011;50120;53.250;8.702;2022-08-21T08:34:45;3.83;;;1.58;;
41964;SDS011;50120;53.250;8.702;2022-08-21T08:37:12;9.93;;;1.65;;
41964;SDS011;50120;53.250;8.702;2022-08-21T08:39:38;5.38;;;1.55;;
41964;SDS011;50120;53.250;8.702;2022-08-21T08:42:08;5.95;;;1.48;;
41964;SDS011;50120;53.250;8.702;2022-08-21T08:44:39;6.65;;;1.40;;
41964;SDS011;50120;53.250;8.702;2022-08-21T08:47:13;4.47;;;1.40;;
41964;SDS011;50120;53.250;8.702;2022-08-21T08:49:46;4.85;;;1.40;;
41964;SDS011;50120;53.250;8.702;2022-08-21T08:52:33;3.90;;;1.30;;
41964;SDS011;50120;53.250;8.702;2022-08-21T08:55:06;3.88;;;1.35;;
41964;SDS011;50120;53.250;8.702;2022-08-21T08:57:36;5.40;;;1.75;;
41964;SDS011;50120;53.250;8.702;2022-08-21T09:00:09;4.70;;;1.40;;
41964;SDS011;50120;53.250;8.702;2022-08-21T09:02:40;5.93;;;1.58;;
41964;SDS011;50120;53.250;8.702;2022-08-21T09:05:07;3.20;;;1.42;;
41964;SDS011;50120;53.250;8.702;2022-08-21T09:10:21;4.10;;;1.60;;
41964;SDS011;50120;53.250;8.702;2022-08-21T09:24:29;6.60;;;1.80;;
41964;SDS011;50120;53.250;8.702;2022-08-21T09:27:16;5.05;;;1.58;;
41964;SDS011;50120;53.250;8.702;2022-08-21T09:29:44;7.10;;;1.83;;
41964;SDS011;50120;53.250;8.702;2022-08-21T09:32:17;4.75;;;1.40;;
41964;SDS011;50120;53.250;8.702;2022-08-21T09:35:06;5.20;;;1.60;;
41964;SDS011;50120;53.250;8.702;2022-08-21T09:37:51;2.95;;;1.20;;
41964;SDS011;50120;53.250;8.702;2022-08-21T09:40:43;6.88;;;1.80;;
41964;SDS011;50120;53.250;8.702;2022-08-21T09:45:38;7.88;;;1.67;;
41964;SDS011;50120;53.250;8.702;2022-08-21T09:50:37;13.30;;;5.43;;
41964;SDS011;50120;53.250;8.702;2022-08-21T09:53:03;6.45;;;3.42;;
41964;SDS011;50120;53.250;8.702;2022-08-21T09:55:49;4.15;;;1.88;;
41964;SDS011;50120;53.250;8.702;2022-08-21T09:58:40;8.45;;;2.20;;
41964;SDS011;50120;53.250;8.702;2022-08-21T10:01:13;7.90;;;1.77;;
41964;SDS011;50120;53.250;8.702;2022-08-21T10:03:42;5.93;;;1.65;;
41964;SDS011;50120;53.250;8.702;2022-08-21T10:06:09;8.07;;;2.63;;
41964;SDS011;50120;53.250;8.702;2022-08-21T10:08:45;7.28;;;2.10;;
41964;SDS011;50120;53.250;8.702;2022-08-21T10:11:12;8.68;;;2.40;;
41964;SDS011;50120;53.250;8.702;2022-08-21T10:19:11;11.02;;;1.73;;
41964;SDS011;50120;53.250;8.702;2022-08-21T10:21:46;11.15;;;4.05;;
41964;SDS011;50120;53.250;8.702;2022-08-21T10:24:19;8.10;;;3.42;;
41964;SDS011;50120;53.250;8.702;2022-08-21T10:27:11;13.82;;;5.10;;
41964;SDS011;50120;53.250;8.702;2022-08-21T10:32:43;8.65;;;2.30;;
41964;SDS011;50120;53.250;8.702;2022-08-21T10:38:10;3.97;;;1.50;;
41964;SDS011;50120;53.250;8.702;2022-08-21T10:40:51;6.40;;;1.63;;
41964;SDS011;50120;53.250;8.702;2022-08-21T10:49:14;5.32;;;2.33;;
41964;SDS011;50120;53.250;8.702;2022-08-21T10:54:26;9.00;;;3.90;;
41964;SDS011;50120;53.250;8.702;2022-08-21T10:57:02;4.97;;;2.15;;
41964;SDS011;50120;53.250;8.702;2022-08-21T11:12:42;4.15;;;1.65;;
41964;SDS011;50120;53.250;8.702;2022-08-21T11:15:26;5.72;;;1.50;;
41964;SDS011;50120;53.250;8.702;2022-08-21T11:18:04;3.60;;;1.30;;
41964;SDS011;50120;53.250;8.702;2022-08-21T11:23:23;4.10;;;1.17;;
41964;SDS011;50120;53.250;8.702;2022-08-21T11:26:07;4.72;;;1.30;;
41964;SDS011;50120;53.250;8.702;2022-08-21T11:28:54;4.60;;;1.30;;
41964;SDS011;50120;53.250;8.702;2022-08-21T11:31:30;3.22;;;1.30;;
41964;SDS011;50120;53.250;8.702;2022-08-21T11:34:16;3.97;;;1.35;;
41964;SDS011;50120;53.250;8.702;2022-08-21T11:36:58;7.30;;;1.63;;
41964;SDS011;50120;53.250;8.702;2022-08-21T11:39:49;8.07;;;1.67;;
41964;SDS011;50120;53.250;8.702;2022-08-21T11:42:23;5.07;;;1.38;;
41964;SDS011;50120;53.250;8.702;2022-08-21T11:45:14;4.90;;;1.30;;
41964;SDS011;50120;53.250;8.702;2022-08-21T11:48:00;4.25;;;1.13;;
41964;SDS011;50120;53.250;8.702;2022-08-21T11:50:37;4.38;;;1.40;;
41964;SDS011;50120;53.250;8.702;2022-08-21T11:58:14;3.50;;;1.27;;
41964;SDS011;50120;53.250;8.702;2022-08-21T12:00:49;3.78;;;1.30;;
41964;SDS011;50120;53.250;8.702;2022-08-21T12:06:28;5.55;;;2.08;;
41964;SDS011;50120;53.250;8.702;2022-08-21T12:09:09;4.70;;;1.73;;
41964;SDS011;50120;53.250;8.702;2022-08-21T12:17:05;5.05;;;1.73;;
41964;SDS011;50120;53.250;8.702;2022-08-21T12:19:33;3.10;;;1.63;;
41964;SDS011;50120;53.250;8.702;2022-08-21T12:24:39;3.13;;;1.60;;
41964;SDS011;50120;53.250;8.702;2022-08-21T12:30:35;3.80;;;1.15;;
41964;SDS011;50120;53.250;8.702;2022-08-21T12:35:24;5.93;;;1.30;;
41964;SDS011;50120;53.250;8.702;2022-08-21T12:40:43;4.97;;;1.20;;
41964;SDS011;50120;53.250;8.702;2022-08-21T12:46:22;2.92;;;1.20;;
41964;SDS011;50120;53.250;8.702;2022-08-21T12:49:00;6.40;;;1.70;;
41964;SDS011;50120;53.250;8.702;2022-08-21T12:51:34;5.28;;;1.60;;
41964;SDS011;50120;53.250;8.702;2022-08-21T12:54:20;2.20;;;1.10;;
41964;SDS011;50120;53.250;8.702;2022-08-21T12:56:55;3.65;;;1.38;;
41964;SDS011;50120;53.250;8.702;2022-08-21T12:59:26;2.50;;;1.20;;
41964;SDS011;50120;53.250;8.702;2022-08-21T13:01:52;3.63;;;1.10;;
41964;SDS011;50120;53.250;8.702;2022-08-21T13:04:26;2.95;;;1.27;;
41964;SDS011;50120;53.250;8.702;2022-08-21T13:06:58;3.70;;;1.13;;
41964;SDS011;50120;53.250;8.702;2022-08-21T13:09:26;3.42;;;1.25;;
41964;SDS011;50120;53.250;8.702;2022-08-21T13:11:54;4.28;;;1.13;;
41964;SDS011;50120;53.250;8.702;2022-08-21T13:14:27;3.08;;;1.23;;
41964;SDS011;50120;53.250;8.702;2022-08-21T13:16:58;3.35;;;1.08;;
41964;SDS011;50120;53.250;8.702;2022-08-21T13:19:25;2.85;;;1.10;;
41964;SDS011;50120;53.250;8.702;2022-08-21T13:21:51;3.78;;;1.10;;
41964;SDS011;50120;53.250;8.702;2022-08-21T13:24:31;3.22;;;1.10;;
41964;SDS011;50120;53.250;8.702;2022-08-21T13:26:59;2.35;;;1.02;;
41964;SDS011;50120;53.250;8.702;2022-08-21T13:29:32;4.07;;;1.10;;
41964;SDS011;50120;53.250;8.702;2022-08-21T13:32:03;2.58;;;0.95;;
41964;SDS011;50120;53.250;8.702;2022-08-21T13:34:35;2.53;;;1.10;;
41964;SDS011;50120;53.250;8.702;2022-08-21T13:37:07;2.97;;;1.10;;
41964;SDS011;50120;53.250;8.702;2022-08-21T13:39:34;1.80;;;0.95;;
41964;SDS011;50120;53.250;8.702;2022-08-21T13:42:01;3.65;;;1.13;;
41964;SDS011;50120;53.250;8.702;2022-08-21T13:46:59;6.18;;;1.30;;
41964;SDS011;50120;53.250;8.702;2022-08-21T13:49:29;4.22;;;1.40;;
41964;SDS011;50120;53.250;8.702;2022-08-21T13:51:57;2.85;;;1.30;;
41964;SDS011;50120;53.250;8.702;2022-08-21T13:56:51;5.90;;;1.30;;
41964;SDS011;50120;53.250;8.702;2022-08-21T13:59:25;3.55;;;0.90;;
41964;SDS011;50120;53.250;8.702;2022-08-21T14:04:54;3.08;;;1.10;;
41964;SDS011;50120;53.250;8.702;2022-08-21T14:07:33;2.05;;;0.90;;
41964;SDS011;50120;53.250;8.702;2022-08-21T14:10:15;1.75;;;0.88;;
41964;SDS011;50120;53.250;8.702;2022-08-21T14:12:51;8.48;;;4.07;;
41964;SDS011;50120;53.250;8.702;2022-08-21T14:15:26;7.85;;;4.05;;
41964;SDS011;50120;53.250;8.702;2022-08-21T14:17:54;4.22;;;1.83;;
41964;SDS011;50120;53.250;8.702;2022-08-21T14:20:44;3.00;;;1.35;;
41964;SDS011;50120;53.250;8.702;2022-08-21T14:23:10;2.72;;;1.17;;
41964;SDS011;50120;53.250;8.702;2022-08-21T14:30:42;5.47;;;1.25;;
41964;SDS011;50120;53.250;8.702;2022-08-21T14:33:09;4.55;;;1.17;;
41964;SDS011;50120;53.250;8.702;2022-08-21T14:35:36;2.83;;;1.33;;
41964;SDS011;50120;53.250;8.702;2022-08-21T14:38:10;2.40;;;1.10;;
41964;SDS011;50120;53.250;8.702;2022-08-21T14:40:38;2.28;;;0.88;;
41964;SDS011;50120;53.250;8.702;2022-08-21T14:43:04;4.95;;;1.10;;
41964;SDS011;50120;53.250;8.702;2022-08-21T14:45:30;2.78;;;1.20;;
41964;SDS011;50120;53.250;8.702;2022-08-21T14:47:57;2.83;;;1.02;;
41964;SDS011;50120;53.250;8.702;2022-08-21T14:50:23;3.53;;;1.15;;
41964;SDS011;50120;53.250;8.702;2022-08-21T14:52:50;2.25;;;1.05;;
41964;SDS011;50120;53.250;8.702;2022-08-21T14:55:16;3.97;;;1.33;;
41964;SDS011;50120;53.250;8.702;2022-08-21T14:57:46;6.13;;;1.13;;
41964;SDS011;50120;53.250;8.702;2022-08-21T15:00:18;2.28;;;0.98;;
41964;SDS011;50120;53.250;8.702;2022-08-21T15:02:46;2.40;;;0.90;;
41964;SDS011;50120;53.250;8.702;2022-08-21T15:05:12;3.25;;;1.00;;
41964;SDS011;50120;53.250;8.702;2022-08-21T15:07:38;3.05;;;1.15;;
41964;SDS011;50120;53.250;8.702;2022-08-21T15:10:05;2.42;;;1.00;;
41964;SDS011;50120;53.250;8.702;2022-08-21T15:12:32;2.13;;;0.80;;
41964;SDS011;50120;53.250;8.702;2022-08-21T15:14:58;1.77;;;1.02;;
41964;SDS011;50120;53.250;8.702;2022-08-21T15:17:23;2.80;;;0.90;;
41964;SDS011;50120;53.250;8.702;2022-08-21T15:19:50;2.00;;;1.00;;
41964;SDS011;50120;53.250;8.702;2022-08-21T15:22:16;2.42;;;0.80;;
41964;SDS011;50120;53.250;8.702;2022-08-21T15:24:42;1.90;;;0.80;;
41964;SDS011;50120;53.250;8.702;2022-08-21T15:27:08;4.03;;;1.35;;
41964;SDS011;50120;53.250;8.702;2022-08-21T15:29:35;1.95;;;0.85;;
41964;SDS011;50120;53.250;8.702;2022-08-21T15:32:24;5.22;;;1.10;;
41964;SDS011;50120;53.250;8.702;2022-08-21T15:34:50;3.28;;;1.00;;
41964;SDS011;50120;53.250;8.702;2022-08-21T15:37:16;2.65;;;0.90;;
41964;SDS011;50120;53.250;8.702;2022-08-21T15:39:43;2.35;;;0.80;;
41964;SDS011;50120;53.250;8.702;2022-08-21T15:42:09;2.97;;;1.08;;
41964;SDS011;50120;53.250;8.702;2022-08-21T15:44:36;1.05;;;0.80;;
41964;SDS011;50120;53.250;8.702;2022-08-21T15:47:04;2.90;;;0.80;;
41964;SDS011;50120;53.250;8.702;2022-08-21T15:49:30;3.75;;;1.00;;
41964;SDS011;50120;53.250;8.702;2022-08-21T15:51:56;2.90;;;1.00;;
41964;SDS011;50120;53.250;8.702;2022-08-21T15:54:22;2.78;;;1.08;;
41964;SDS011;50120;53.250;8.702;2022-08-21T15:56:48;2.13;;;0.90;;
41964;SDS011;50120;53.250;8.702;2022-08-21T15:59:16;3.20;;;0.90;;
41964;SDS011;50120;53.250;8.702;2022-08-21T16:01:47;1.48;;;0.90;;
41964;SDS011;50120;53.250;8.702;2022-08-21T16:04:17;3.10;;;0.90;;
41964;SDS011;50120;53.250;8.702;2022-08-21T16:06:49;3.92;;;0.90;;
41964;SDS011;50120;53.250;8.702;2022-08-21T16:09:14;2.67;;;1.13;;
41964;SDS011;50120;53.250;8.702;2022-08-21T16:11:41;3.35;;;1.00;;
41964;SDS011;50120;53.250;8.702;2022-08-21T16:14:08;4.72;;;1.20;;
41964;SDS011;50120;53.250;8.702;2022-08-21T16:16:36;3.85;;;1.00;;
41964;SDS011;50120;53.250;8.702;2022-08-21T16:19:03;2.40;;;0.98;;
41964;SDS011;50120;53.250;8.702;2022-08-21T16:21:31;3.40;;;1.23;;
41964;SDS011;50120;53.250;8.702;2022-08-21T16:23:58;3.95;;;1.23;;
41964;SDS011;50120;53.250;8.702;2022-08-21T16:26:24;4.85;;;1.20;;
41964;SDS011;50120;53.250;8.702;2022-08-21T16:28:52;4.35;;;1.48;;
41964;SDS011;50120;53.250;8.702;2022-08-21T16:31:22;5.25;;;1.85;;
41964;SDS011;50120;53.250;8.702;2022-08-21T16:33:49;3.67;;;1.33;;